sensor_id;sensor_type;location;lat;lon;timestamp;pressure;altitude;pressure_sealevel;temperature
18704;BMP180;9481;48.796;9.210;2022-07-22T00:00:13;96993.00;;;27.70
18704;BMP180;9481;48.796;9.210;2022-07-22T00:02:40;97000.00;;;27.70
18704;BMP180;9481;48.796;9.210;2022-07-22T00:05:07;96992.00;;;27.60
18704;BMP180;9481;48.796;9.210;2022-07-22T00:07:33;97002.00;;;27.60
18704;BMP180;9481;48.796;9.210;2022-07-22T00:09:58;96998.00;;;27.60
18704;BMP180;9481;48.796;9.210;2022-07-22T00:12:24;97000.00;;;27.60
18704;BMP180;9481;48.796;9.210;2022-07-22T00:14:50;97000.00;;;27.60
18704;BMP180;9481;48.796;9.210;2022-07-22T00:17:16;96993.00;;;27.60
18704;BMP180;9481;48.796;9.210;2022-07-22T00:19:42;97002.00;;;27.60
18704;BMP180;9481;48.796;9.210;2022-07-22T00:22:08;97001.00;;;27.60
18704;BMP180;9481;48.796;9.210;2022-07-22T00:24:33;96992.00;;;27.60
18704;BMP180;9481;48.796;9.210;2022-07-22T00:26:59;96999.00;;;27.60
18704;BMP180;9481;48.796;9.210;2022-07-22T00:29:25;97000.00;;;27.60
18704;BMP180;9481;48.796;9.210;2022-07-22T00:31:50;96990.00;;;27.60
18704;BMP180;9481;48.796;9.210;2022-07-22T00:34:16;96990.00;;;27.50
18704;BMP180;9481;48.796;9.210;2022-07-22T00:36:42;96988.00;;;27.50
18704;BMP180;9481;48.796;9.210;2022-07-22T00:39:08;96986.00;;;27.50
18704;BMP180;9481;48.796;9.210;2022-07-22T00:41:33;96980.00;;;27.50
18704;BMP180;9481;48.796;9.210;2022-07-22T00:44:05;96983.00;;;27.50
18704;BMP180;9481;48.796;9.210;2022-07-22T00:46:32;96981.00;;;27.50
18704;BMP180;9481;48.796;9.210;2022-07-22T00:48:59;96978.00;;;27.50
18704;BMP180;9481;48.796;9.210;2022-07-22T00:51:27;96984.00;;;27.50
18704;BMP180;9481;48.796;9.210;2022-07-22T00:53:54;96978.00;;;27.50
18704;BMP180;9481;48.796;9.210;2022-07-22T00:56:22;96981.00;;;27.50
18704;BMP180;9481;48.796;9.210;2022-07-22T00:58:51;96980.00;;;27.50
18704;BMP180;9481;48.796;9.210;2022-07-22T01:01:18;96978.00;;;27.50
18704;BMP180;9481;48.796;9.210;2022-07-22T01:03:44;96972.00;;;27.50
18704;BMP180;9481;48.796;9.210;2022-07-22T01:06:10;96967.00;;;27.50
18704;BMP180;9481;48.796;9.210;2022-07-22T01:08:38;96973.00;;;27.50
18704;BMP180;9481;48.796;9.210;2022-07-22T01:11:20;96974.00;;;27.40
18704;BMP180;9481;48.796;9.210;2022-07-22T01:13:47;96971.00;;;27.50
18704;BMP180;9481;48.796;9.210;2022-07-22T01:16:16;96972.00;;;27.40
18704;BMP180;9481;48.796;9.210;2022-07-22T01:18:44;96971.00;;;27.40
18704;BMP180;9481;48.796;9.210;2022-07-22T01:21:11;96969.00;;;27.40
18704;BMP180;9481;48.796;9.210;2022-07-22T01:23:38;96963.00;;;27.40
18704;BMP180;9481;48.796;9.210;2022-07-22T01:26:05;96966.00;;;27.40
18704;BMP180;9481;48.796;9.210;2022-07-22T01:28:32;96970.00;;;27.40
18704;BMP180;9481;48.796;9.210;2022-07-22T01:30:58;96961.00;;;27.30
18704;BMP180;9481;48.796;9.210;2022-07-22T01:33:24;96959.00;;;27.30
18704;BMP180;9481;48.796;9.210;2022-07-22T01:35:51;96962.00;;;27.30
18704;BMP180;9481;48.796;9.210;2022-07-22T01:38:17;96963.00;;;27.30
18704;BMP180;9481;48.796;9.210;2022-07-22T01:40:44;96964.00;;;27.20
18704;BMP180;9481;48.796;9.210;2022-07-22T01:43:10;96964.00;;;27.20
18704;BMP180;9481;48.796;9.210;2022-07-22T01:45:37;96969.00;;;27.20
18704;BMP180;9481;48.796;9.210;2022-07-22T01:48:03;96964.00;;;27.10
18704;BMP180;9481;48.796;9.210;2022-07-22T01:50:29;96962.00;;;27.10
18704;BMP180;9481;48.796;9.210;2022-07-22T01:52:55;96967.00;;;27.10
18704;BMP180;9481;48.796;9.210;2022-07-22T01:55:21;96966.00;;;27.10
18704;BMP180;9481;48.796;9.210;2022-07-22T01:57:47;96964.00;;;27.00
18704;BMP180;9481;48.796;9.210;2022-07-22T02:00:13;96960.00;;;27.00
18704;BMP180;9481;48.796;9.210;2022-07-22T02:02:39;96961.00;;;27.00
18704;BMP180;9481;48.796;9.210;2022-07-22T02:05:06;96963.00;;;27.00
18704;BMP180;9481;48.796;9.210;2022-07-22T02:07:32;96963.00;;;27.00
18704;BMP180;9481;48.796;9.210;2022-07-22T02:09:58;96951.00;;;26.90
18704;BMP180;9481;48.796;9.210;2022-07-22T02:12:24;96962.00;;;27.00
18704;BMP180;9481;48.796;9.210;2022-07-22T02:14:50;96960.00;;;26.90
18704;BMP180;9481;48.796;9.210;2022-07-22T02:17:16;96950.00;;;26.90
18704;BMP180;9481;48.796;9.210;2022-07-22T02:19:42;96955.00;;;26.90
18704;BMP180;9481;48.796;9.210;2022-07-22T02:22:08;96939.00;;;26.90
18704;BMP180;9481;48.796;9.210;2022-07-22T02:24:34;96947.00;;;26.90
18704;BMP180;9481;48.796;9.210;2022-07-22T02:27:00;96950.00;;;26.90
18704;BMP180;9481;48.796;9.210;2022-07-22T02:29:27;96953.00;;;26.90
18704;BMP180;9481;48.796;9.210;2022-07-22T02:31:53;96952.00;;;26.80
18704;BMP180;9481;48.796;9.210;2022-07-22T02:34:19;96952.00;;;26.80
18704;BMP180;9481;48.796;9.210;2022-07-22T02:36:45;96952.00;;;26.80
18704;BMP180;9481;48.796;9.210;2022-07-22T02:39:10;96951.00;;;26.80
18704;BMP180;9481;48.796;9.210;2022-07-22T02:41:37;96945.00;;;26.70
18704;BMP180;9481;48.796;9.210;2022-07-22T02:44:03;96948.00;;;26.70
18704;BMP180;9481;48.796;9.210;2022-07-22T02:46:29;96943.00;;;26.70
18704;BMP180;9481;48.796;9.210;2022-07-22T02:48:55;96938.00;;;26.70
18704;BMP180;9481;48.796;9.210;2022-07-22T02:51:21;96937.00;;;26.70
18704;BMP180;9481;48.796;9.210;2022-07-22T02:53:47;96940.00;;;26.60
18704;BMP180;9481;48.796;9.210;2022-07-22T02:56:13;96942.00;;;26.60
18704;BMP180;9481;48.796;9.210;2022-07-22T02:58:40;96948.00;;;26.60
18704;BMP180;9481;48.796;9.210;2022-07-22T03:01:06;96949.00;;;26.60
18704;BMP180;9481;48.796;9.210;2022-07-22T03:03:32;96945.00;;;26.60
18704;BMP180;9481;48.796;9.210;2022-07-22T03:05:59;96938.00;;;26.50
18704;BMP180;9481;48.796;9.210;2022-07-22T03:08:25;96935.00;;;26.50
18704;BMP180;9481;48.796;9.210;2022-07-22T03:10:51;96944.00;;;26.50
18704;BMP180;9481;48.796;9.210;2022-07-22T03:13:17;96939.00;;;26.50
18704;BMP180;9481;48.796;9.210;2022-07-22T03:15:43;96944.00;;;26.50
18704;BMP180;9481;48.796;9.210;2022-07-22T03:18:09;96942.00;;;26.40
18704;BMP180;9481;48.796;9.210;2022-07-22T03:20:35;96951.00;;;26.40
18704;BMP180;9481;48.796;9.210;2022-07-22T03:23:00;96949.00;;;26.40
18704;BMP180;9481;48.796;9.210;2022-07-22T03:25:26;96941.00;;;26.40
18704;BMP180;9481;48.796;9.210;2022-07-22T03:27:52;96951.00;;;26.40
18704;BMP180;9481;48.796;9.210;2022-07-22T03:30:18;96949.00;;;26.40
18704;BMP180;9481;48.796;9.210;2022-07-22T03:32:43;96952.00;;;26.30
18704;BMP180;9481;48.796;9.210;2022-07-22T03:35:11;96951.00;;;26.30
18704;BMP180;9481;48.796;9.210;2022-07-22T03:37:37;96947.00;;;26.30
18704;BMP180;9481;48.796;9.210;2022-07-22T03:40:04;96938.00;;;26.30
18704;BMP180;9481;48.796;9.210;2022-07-22T03:42:29;96953.00;;;26.20
18704;BMP180;9481;48.796;9.210;2022-07-22T03:44:55;96941.00;;;26.20
18704;BMP180;9481;48.796;9.210;2022-07-22T03:47:21;96943.00;;;26.20
18704;BMP180;9481;48.796;9.210;2022-07-22T03:49:49;96946.00;;;26.20
18704;BMP180;9481;48.796;9.210;2022-07-22T03:52:15;96944.00;;;26.20
18704;BMP180;9481;48.796;9.210;2022-07-22T03:54:42;96948.00;;;26.10
18704;BMP180;9481;48.796;9.210;2022-07-22T03:57:09;96952.00;;;26.10
18704;BMP180;9481;48.796;9.210;2022-07-22T03:59:35;96952.00;;;26.10
18704;BMP180;9481;48.796;9.210;2022-07-22T04:02:01;96951.00;;;26.10
18704;BMP180;9481;48.796;9.210;2022-07-22T04:04:27;96946.00;;;26.10
18704;BMP180;9481;48.796;9.210;2022-07-22T04:06:53;96943.00;;;26.10
18704;BMP180;9481;48.796;9.210;2022-07-22T04:09:19;96956.00;;;26.10
18704;BMP180;9481;48.796;9.210;2022-07-22T04:11:45;96951.00;;;26.00
18704;BMP180;9481;48.796;9.210;2022-07-22T04:14:10;96956.00;;;26.00
18704;BMP180;9481;48.796;9.210;2022-07-22T04:16:36;96950.00;;;26.00
18704;BMP180;9481;48.796;9.210;2022-07-22T04:19:03;96953.00;;;26.00
18704;BMP180;9481;48.796;9.210;2022-07-22T04:21:29;96948.00;;;26.00
18704;BMP180;9481;48.796;9.210;2022-07-22T04:23:55;96946.00;;;26.00
18704;BMP180;9481;48.796;9.210;2022-07-22T04:26:22;96943.00;;;26.00
18704;BMP180;9481;48.796;9.210;2022-07-22T04:28:48;96949.00;;;26.00
18704;BMP180;9481;48.796;9.210;2022-07-22T04:31:14;96952.00;;;26.00
18704;BMP180;9481;48.796;9.210;2022-07-22T04:33:40;96942.00;;;26.00
18704;BMP180;9481;48.796;9.210;2022-07-22T04:36:06;96943.00;;;25.90
18704;BMP180;9481;48.796;9.210;2022-07-22T04:38:32;96940.00;;;26.00
18704;BMP180;9481;48.796;9.210;2022-07-22T04:40:57;96942.00;;;26.00
18704;BMP180;9481;48.796;9.210;2022-07-22T04:43:23;96936.00;;;26.00
18704;BMP180;9481;48.796;9.210;2022-07-22T04:45:49;96937.00;;;26.00
18704;BMP180;9481;48.796;9.210;2022-07-22T04:48:16;96928.00;;;26.00
18704;BMP180;9481;48.796;9.210;2022-07-22T04:50:42;96944.00;;;25.90
18704;BMP180;9481;48.796;9.210;2022-07-22T04:53:08;96938.00;;;26.00
18704;BMP180;9481;48.796;9.210;2022-07-22T04:55:34;96933.00;;;26.00
18704;BMP180;9481;48.796;9.210;2022-07-22T04:57:59;96941.00;;;26.00
18704;BMP180;9481;48.796;9.210;2022-07-22T05:00:25;96940.00;;;26.00
18704;BMP180;9481;48.796;9.210;2022-07-22T05:02:51;96930.00;;;26.00
18704;BMP180;9481;48.796;9.210;2022-07-22T05:05:17;96930.00;;;26.00
18704;BMP180;9481;48.796;9.210;2022-07-22T05:07:43;96937.00;;;26.00
18704;BMP180;9481;48.796;9.210;2022-07-22T05:10:09;96934.00;;;26.10
18704;BMP180;9481;48.796;9.210;2022-07-22T05:12:35;96943.00;;;26.10
18704;BMP180;9481;48.796;9.210;2022-07-22T05:15:01;96931.00;;;26.10
18704;BMP180;9481;48.796;9.210;2022-07-22T05:17:27;96935.00;;;26.10
18704;BMP180;9481;48.796;9.210;2022-07-22T05:19:53;96939.00;;;26.10
18704;BMP180;9481;48.796;9.210;2022-07-22T05:22:18;96929.00;;;26.10
18704;BMP180;9481;48.796;9.210;2022-07-22T05:24:45;96939.00;;;26.20
18704;BMP180;9481;48.796;9.210;2022-07-22T05:27:11;96932.00;;;26.20
18704;BMP180;9481;48.796;9.210;2022-07-22T05:29:36;96934.00;;;26.20
18704;BMP180;9481;48.796;9.210;2022-07-22T05:32:02;96940.00;;;26.30
18704;BMP180;9481;48.796;9.210;2022-07-22T05:34:28;96937.00;;;26.30
18704;BMP180;9481;48.796;9.210;2022-07-22T05:36:53;96941.00;;;26.40
18704;BMP180;9481;48.796;9.210;2022-07-22T05:39:19;96937.00;;;26.40
18704;BMP180;9481;48.796;9.210;2022-07-22T05:41:45;96937.00;;;26.40
18704;BMP180;9481;48.796;9.210;2022-07-22T05:44:10;96921.00;;;26.40
18704;BMP180;9481;48.796;9.210;2022-07-22T05:46:36;96934.00;;;26.50
18704;BMP180;9481;48.796;9.210;2022-07-22T05:49:02;96940.00;;;26.50
18704;BMP180;9481;48.796;9.210;2022-07-22T05:51:28;96940.00;;;26.60
18704;BMP180;9481;48.796;9.210;2022-07-22T05:53:54;96932.00;;;26.60
18704;BMP180;9481;48.796;9.210;2022-07-22T05:56:19;96936.00;;;26.60
18704;BMP180;9481;48.796;9.210;2022-07-22T05:58:45;96941.00;;;26.70
18704;BMP180;9481;48.796;9.210;2022-07-22T06:01:12;96946.00;;;26.80
18704;BMP180;9481;48.796;9.210;2022-07-22T06:03:38;96927.00;;;26.80
18704;BMP180;9481;48.796;9.210;2022-07-22T06:06:04;96934.00;;;26.80
18704;BMP180;9481;48.796;9.210;2022-07-22T06:08:35;96940.00;;;26.90
18704;BMP180;9481;48.796;9.210;2022-07-22T06:11:01;96942.00;;;26.90
18704;BMP180;9481;48.796;9.210;2022-07-22T06:13:27;96931.00;;;27.00
18704;BMP180;9481;48.796;9.210;2022-07-22T06:15:52;96938.00;;;27.00
18704;BMP180;9481;48.796;9.210;2022-07-22T06:18:18;96946.00;;;27.10
18704;BMP180;9481;48.796;9.210;2022-07-22T06:20:45;96941.00;;;27.10
18704;BMP180;9481;48.796;9.210;2022-07-22T06:23:10;96932.00;;;27.20
18704;BMP180;9481;48.796;9.210;2022-07-22T06:25:36;96932.00;;;27.30
18704;BMP180;9481;48.796;9.210;2022-07-22T06:28:02;96936.00;;;27.30
18704;BMP180;9481;48.796;9.210;2022-07-22T06:30:28;96929.00;;;27.50
18704;BMP180;9481;48.796;9.210;2022-07-22T06:32:54;96939.00;;;27.50
18704;BMP180;9481;48.796;9.210;2022-07-22T06:35:19;96939.00;;;27.60
18704;BMP180;9481;48.796;9.210;2022-07-22T06:37:45;96932.00;;;27.60
18704;BMP180;9481;48.796;9.210;2022-07-22T06:40:11;96940.00;;;27.70
18704;BMP180;9481;48.796;9.210;2022-07-22T06:42:38;96935.00;;;27.80
18704;BMP180;9481;48.796;9.210;2022-07-22T06:45:05;96942.00;;;27.80
18704;BMP180;9481;48.796;9.210;2022-07-22T06:47:31;96941.00;;;27.90
18704;BMP180;9481;48.796;9.210;2022-07-22T06:49:57;96939.00;;;28.00
18704;BMP180;9481;48.796;9.210;2022-07-22T06:52:23;96948.00;;;28.00
18704;BMP180;9481;48.796;9.210;2022-07-22T06:54:49;96941.00;;;28.10
18704;BMP180;9481;48.796;9.210;2022-07-22T06:57:15;96934.00;;;28.20
18704;BMP180;9481;48.796;9.210;2022-07-22T06:59:40;96935.00;;;28.20
18704;BMP180;9481;48.796;9.210;2022-07-22T07:02:06;96945.00;;;28.30
18704;BMP180;9481;48.796;9.210;2022-07-22T07:04:32;96934.00;;;28.40
18704;BMP180;9481;48.796;9.210;2022-07-22T07:06:57;96945.00;;;28.50
18704;BMP180;9481;48.796;9.210;2022-07-22T07:09:23;96942.00;;;28.50
18704;BMP180;9481;48.796;9.210;2022-07-22T07:11:49;96935.00;;;28.60
18704;BMP180;9481;48.796;9.210;2022-07-22T07:14:15;96932.00;;;28.70
18704;BMP180;9481;48.796;9.210;2022-07-22T07:16:41;96923.00;;;28.80
18704;BMP180;9481;48.796;9.210;2022-07-22T07:19:06;96931.00;;;28.80
18704;BMP180;9481;48.796;9.210;2022-07-22T07:21:32;96922.00;;;28.90
18704;BMP180;9481;48.796;9.210;2022-07-22T07:23:58;96925.00;;;28.90
18704;BMP180;9481;48.796;9.210;2022-07-22T07:26:24;96921.00;;;29.00
18704;BMP180;9481;48.796;9.210;2022-07-22T07:28:49;96924.00;;;29.10
18704;BMP180;9481;48.796;9.210;2022-07-22T07:31:17;96921.00;;;29.10
18704;BMP180;9481;48.796;9.210;2022-07-22T07:33:43;96914.00;;;29.20
18704;BMP180;9481;48.796;9.210;2022-07-22T07:36:08;96913.00;;;29.20
18704;BMP180;9481;48.796;9.210;2022-07-22T07:38:34;96908.00;;;29.30
18704;BMP180;9481;48.796;9.210;2022-07-22T07:41:01;96915.00;;;29.30
18704;BMP180;9481;48.796;9.210;2022-07-22T07:43:27;96912.00;;;29.40
18704;BMP180;9481;48.796;9.210;2022-07-22T07:45:53;96915.00;;;29.40
18704;BMP180;9481;48.796;9.210;2022-07-22T07:48:19;96911.00;;;29.50
18704;BMP180;9481;48.796;9.210;2022-07-22T07:50:44;96910.00;;;29.50
18704;BMP180;9481;48.796;9.210;2022-07-22T07:53:15;96901.00;;;29.60
18704;BMP180;9481;48.796;9.210;2022-07-22T07:55:41;96896.00;;;29.60
18704;BMP180;9481;48.796;9.210;2022-07-22T07:58:07;96891.00;;;29.60
18704;BMP180;9481;48.796;9.210;2022-07-22T08:00:33;96901.00;;;29.70
18704;BMP180;9481;48.796;9.210;2022-07-22T08:03:02;96900.00;;;29.70
18704;BMP180;9481;48.796;9.210;2022-07-22T08:05:29;96899.00;;;29.80
18704;BMP180;9481;48.796;9.210;2022-07-22T08:07:55;96904.00;;;29.80
18704;BMP180;9481;48.796;9.210;2022-07-22T08:10:21;96911.00;;;29.90
18704;BMP180;9481;48.796;9.210;2022-07-22T08:12:48;96896.00;;;29.90
18704;BMP180;9481;48.796;9.210;2022-07-22T08:15:14;96897.00;;;30.00
18704;BMP180;9481;48.796;9.210;2022-07-22T08:17:40;96902.00;;;30.00
18704;BMP180;9481;48.796;9.210;2022-07-22T08:20:07;96903.00;;;30.10
18704;BMP180;9481;48.796;9.210;2022-07-22T08:22:33;96897.00;;;30.10
18704;BMP180;9481;48.796;9.210;2022-07-22T08:24:59;96905.00;;;30.10
18704;BMP180;9481;48.796;9.210;2022-07-22T08:27:25;96902.00;;;30.20
18704;BMP180;9481;48.796;9.210;2022-07-22T08:29:51;96896.00;;;30.20
18704;BMP180;9481;48.796;9.210;2022-07-22T08:32:17;96901.00;;;30.30
18704;BMP180;9481;48.796;9.210;2022-07-22T08:34:43;96895.00;;;30.40
18704;BMP180;9481;48.796;9.210;2022-07-22T08:37:09;96886.00;;;30.50
18704;BMP180;9481;48.796;9.210;2022-07-22T08:39:35;96890.00;;;30.60
18704;BMP180;9481;48.796;9.210;2022-07-22T08:42:02;96894.00;;;30.70
18704;BMP180;9481;48.796;9.210;2022-07-22T08:44:32;96884.00;;;30.70
18704;BMP180;9481;48.796;9.210;2022-07-22T08:47:00;96884.00;;;30.80
18704;BMP180;9481;48.796;9.210;2022-07-22T08:49:26;96884.00;;;30.80
18704;BMP180;9481;48.796;9.210;2022-07-22T08:51:53;96881.00;;;30.90
18704;BMP180;9481;48.796;9.210;2022-07-22T08:54:19;96885.00;;;30.90
18704;BMP180;9481;48.796;9.210;2022-07-22T08:56:52;96872.00;;;31.00
18704;BMP180;9481;48.796;9.210;2022-07-22T08:59:18;96875.00;;;31.10
18704;BMP180;9481;48.796;9.210;2022-07-22T09:02:08;96872.00;;;31.10
18704;BMP180;9481;48.796;9.210;2022-07-22T09:05:03;96870.00;;;31.20
18704;BMP180;9481;48.796;9.210;2022-07-22T09:07:43;96869.00;;;31.20
18704;BMP180;9481;48.796;9.210;2022-07-22T09:10:15;96874.00;;;31.30
18704;BMP180;9481;48.796;9.210;2022-07-22T09:12:57;96865.00;;;31.30
18704;BMP180;9481;48.796;9.210;2022-07-22T09:15:27;96864.00;;;31.50
18704;BMP180;9481;48.796;9.210;2022-07-22T09:36:19;96876.00;;;31.80
18704;BMP180;9481;48.796;9.210;2022-07-22T09:38:45;96865.00;;;32.00
18704;BMP180;9481;48.796;9.210;2022-07-22T09:41:11;96862.00;;;32.10
18704;BMP180;9481;48.796;9.210;2022-07-22T09:43:37;96852.00;;;32.20
18704;BMP180;9481;48.796;9.210;2022-07-22T09:46:03;96862.00;;;32.30
18704;BMP180;9481;48.796;9.210;2022-07-22T09:48:30;96846.00;;;32.40
18704;BMP180;9481;48.796;9.210;2022-07-22T09:50:57;96854.00;;;32.50
18704;BMP180;9481;48.796;9.210;2022-07-22T09:53:26;96851.00;;;32.60
18704;BMP180;9481;48.796;9.210;2022-07-22T09:55:54;96854.00;;;32.60
18704;BMP180;9481;48.796;9.210;2022-07-22T09:58:22;96847.00;;;32.70
18704;BMP180;9481;48.796;9.210;2022-07-22T10:00:49;96853.00;;;32.80
18704;BMP180;9481;48.796;9.210;2022-07-22T10:03:32;96837.00;;;32.80
18704;BMP180;9481;48.796;9.210;2022-07-22T10:06:02;96842.00;;;32.90
18704;BMP180;9481;48.796;9.210;2022-07-22T10:08:31;96837.00;;;33.00
18704;BMP180;9481;48.796;9.210;2022-07-22T10:11:04;96839.00;;;33.00
18704;BMP180;9481;48.796;9.210;2022-07-22T10:13:31;96834.00;;;33.20
18704;BMP180;9481;48.796;9.210;2022-07-22T10:15:59;96826.00;;;33.30
18704;BMP180;9481;48.796;9.210;2022-07-22T10:18:26;96830.00;;;33.40
18704;BMP180;9481;48.796;9.210;2022-07-22T10:21:09;96818.00;;;33.40
18704;BMP180;9481;48.796;9.210;2022-07-22T10:23:36;96819.00;;;33.60
18704;BMP180;9481;48.796;9.210;2022-07-22T10:26:50;96817.00;;;33.50
18704;BMP180;9481;48.796;9.210;2022-07-22T10:29:40;96813.00;;;33.60
18704;BMP180;9481;48.796;9.210;2022-07-22T10:40:24;96815.00;;;34.00
18704;BMP180;9481;48.796;9.210;2022-07-22T10:45:38;96798.00;;;34.10
18704;BMP180;9481;48.796;9.210;2022-07-22T10:48:08;96793.00;;;34.20
18704;BMP180;9481;48.796;9.210;2022-07-22T10:53:02;96797.00;;;34.20
18704;BMP180;9481;48.796;9.210;2022-07-22T10:55:27;96797.00;;;34.20
18704;BMP180;9481;48.796;9.210;2022-07-22T10:57:53;96785.00;;;34.30
18704;BMP180;9481;48.796;9.210;2022-07-22T11:00:19;96785.00;;;34.30
18704;BMP180;9481;48.796;9.210;2022-07-22T11:02:45;96790.00;;;34.40
18704;BMP180;9481;48.796;9.210;2022-07-22T11:05:11;96780.00;;;34.40
18704;BMP180;9481;48.796;9.210;2022-07-22T11:07:47;96789.00;;;34.40
18704;BMP180;9481;48.796;9.210;2022-07-22T11:10:16;96792.00;;;34.50
18704;BMP180;9481;48.796;9.210;2022-07-22T11:12:42;96794.00;;;34.60
18704;BMP180;9481;48.796;9.210;2022-07-22T11:15:09;96776.00;;;34.60
18704;BMP180;9481;48.796;9.210;2022-07-22T11:17:36;96777.00;;;34.70
18704;BMP180;9481;48.796;9.210;2022-07-22T11:20:09;96777.00;;;34.80
18704;BMP180;9481;48.796;9.210;2022-07-22T11:22:36;96769.00;;;34.90
18704;BMP180;9481;48.796;9.210;2022-07-22T11:25:06;96765.00;;;35.00
18704;BMP180;9481;48.796;9.210;2022-07-22T11:27:32;96768.00;;;35.10
18704;BMP180;9481;48.796;9.210;2022-07-22T11:29:58;96772.00;;;35.20
18704;BMP180;9481;48.796;9.210;2022-07-22T11:32:26;96758.00;;;35.30
18704;BMP180;9481;48.796;9.210;2022-07-22T11:34:56;96765.00;;;35.30
18704;BMP180;9481;48.796;9.210;2022-07-22T11:37:25;96757.00;;;35.40
18704;BMP180;9481;48.796;9.210;2022-07-22T11:39:58;96758.00;;;35.40
18704;BMP180;9481;48.796;9.210;2022-07-22T11:42:26;96756.00;;;35.40
18704;BMP180;9481;48.796;9.210;2022-07-22T11:44:51;96746.00;;;35.50
18704;BMP180;9481;48.796;9.210;2022-07-22T11:47:17;96751.00;;;35.50
18704;BMP180;9481;48.796;9.210;2022-07-22T11:49:46;96730.00;;;35.50
18704;BMP180;9481;48.796;9.210;2022-07-22T11:52:13;96730.00;;;35.60
18704;BMP180;9481;48.796;9.210;2022-07-22T11:54:41;96734.00;;;35.60
18704;BMP180;9481;48.796;9.210;2022-07-22T11:57:07;96740.00;;;35.60
18704;BMP180;9481;48.796;9.210;2022-07-22T11:59:34;96731.00;;;35.70
18704;BMP180;9481;48.796;9.210;2022-07-22T12:02:02;96729.00;;;35.80
18704;BMP180;9481;48.796;9.210;2022-07-22T12:04:30;96720.00;;;35.80
18704;BMP180;9481;48.796;9.210;2022-07-22T12:06:59;96720.00;;;35.90
18704;BMP180;9481;48.796;9.210;2022-07-22T12:09:32;96713.00;;;35.90
18704;BMP180;9481;48.796;9.210;2022-07-22T12:12:00;96716.00;;;36.00
18704;BMP180;9481;48.796;9.210;2022-07-22T12:14:29;96708.00;;;36.10
18704;BMP180;9481;48.796;9.210;2022-07-22T12:19:25;96701.00;;;36.10
18704;BMP180;9481;48.796;9.210;2022-07-22T12:21:57;96695.00;;;36.20
18704;BMP180;9481;48.796;9.210;2022-07-22T12:24:44;96688.00;;;36.20
18704;BMP180;9481;48.796;9.210;2022-07-22T12:27:16;96685.00;;;36.30
18704;BMP180;9481;48.796;9.210;2022-07-22T12:29:48;96678.00;;;36.30
18704;BMP180;9481;48.796;9.210;2022-07-22T12:37:20;96683.00;;;36.50
18704;BMP180;9481;48.796;9.210;2022-07-22T12:42:44;96674.00;;;36.50
18704;BMP180;9481;48.796;9.210;2022-07-22T12:45:16;96682.00;;;36.50
18704;BMP180;9481;48.796;9.210;2022-07-22T12:47:55;96678.00;;;36.50
18704;BMP180;9481;48.796;9.210;2022-07-22T12:50:58;96672.00;;;36.50
18704;BMP180;9481;48.796;9.210;2022-07-22T12:53:25;96677.00;;;36.60
18704;BMP180;9481;48.796;9.210;2022-07-22T12:55:56;96677.00;;;36.60
18704;BMP180;9481;48.796;9.210;2022-07-22T12:58:26;96668.00;;;36.60
18704;BMP180;9481;48.796;9.210;2022-07-22T13:00:57;96671.00;;;36.70
18704;BMP180;9481;48.796;9.210;2022-07-22T13:03:24;96673.00;;;36.70
18704;BMP180;9481;48.796;9.210;2022-07-22T13:06:00;96661.00;;;36.70
18704;BMP180;9481;48.796;9.210;2022-07-22T13:08:28;96668.00;;;36.80
18704;BMP180;9481;48.796;9.210;2022-07-22T13:10:55;96668.00;;;36.80
18704;BMP180;9481;48.796;9.210;2022-07-22T13:13:22;96656.00;;;36.90
18704;BMP180;9481;48.796;9.210;2022-07-22T13:15:48;96665.00;;;36.90
18704;BMP180;9481;48.796;9.210;2022-07-22T13:18:15;96663.00;;;36.90
18704;BMP180;9481;48.796;9.210;2022-07-22T13:20:41;96654.00;;;36.90
18704;BMP180;9481;48.796;9.210;2022-07-22T13:23:07;96659.00;;;37.00
18704;BMP180;9481;48.796;9.210;2022-07-22T13:25:35;96656.00;;;37.00
18704;BMP180;9481;48.796;9.210;2022-07-22T13:28:01;96661.00;;;37.00
18704;BMP180;9481;48.796;9.210;2022-07-22T13:30:27;96655.00;;;37.00
18704;BMP180;9481;48.796;9.210;2022-07-22T13:32:52;96651.00;;;37.00
18704;BMP180;9481;48.796;9.210;2022-07-22T13:35:18;96656.00;;;37.00
18704;BMP180;9481;48.796;9.210;2022-07-22T13:37:45;96652.00;;;37.00
18704;BMP180;9481;48.796;9.210;2022-07-22T13:40:12;96645.00;;;36.90
18704;BMP180;9481;48.796;9.210;2022-07-22T13:42:38;96653.00;;;36.90
18704;BMP180;9481;48.796;9.210;2022-07-22T13:45:05;96649.00;;;36.90
18704;BMP180;9481;48.796;9.210;2022-07-22T13:47:31;96643.00;;;36.90
18704;BMP180;9481;48.796;9.210;2022-07-22T13:49:57;96642.00;;;36.90
18704;BMP180;9481;48.796;9.210;2022-07-22T13:52:24;96637.00;;;36.90
18704;BMP180;9481;48.796;9.210;2022-07-22T13:54:49;96635.00;;;36.90
18704;BMP180;9481;48.796;9.210;2022-07-22T13:57:16;96638.00;;;36.90
18704;BMP180;9481;48.796;9.210;2022-07-22T13:59:42;96639.00;;;36.90
18704;BMP180;9481;48.796;9.210;2022-07-22T14:02:08;96634.00;;;36.80
18704;BMP180;9481;48.796;9.210;2022-07-22T14:04:34;96639.00;;;36.80
18704;BMP180;9481;48.796;9.210;2022-07-22T14:07:00;96636.00;;;36.80
18704;BMP180;9481;48.796;9.210;2022-07-22T14:09:26;96635.00;;;36.80
18704;BMP180;9481;48.796;9.210;2022-07-22T14:11:51;96631.00;;;36.70
18704;BMP180;9481;48.796;9.210;2022-07-22T14:14:17;96631.00;;;36.70
18704;BMP180;9481;48.796;9.210;2022-07-22T14:16:43;96627.00;;;36.70
18704;BMP180;9481;48.796;9.210;2022-07-22T14:19:14;96619.00;;;36.70
18704;BMP180;9481;48.796;9.210;2022-07-22T14:21:45;96623.00;;;36.60
18704;BMP180;9481;48.796;9.210;2022-07-22T14:24:11;96619.00;;;36.60
18704;BMP180;9481;48.796;9.210;2022-07-22T14:26:38;96621.00;;;36.60
18704;BMP180;9481;48.796;9.210;2022-07-22T14:29:04;96627.00;;;36.60
18704;BMP180;9481;48.796;9.210;2022-07-22T14:31:32;96620.00;;;36.50
18704;BMP180;9481;48.796;9.210;2022-07-22T14:33:58;96606.00;;;36.50
18704;BMP180;9481;48.796;9.210;2022-07-22T14:36:24;96605.00;;;36.50
18704;BMP180;9481;48.796;9.210;2022-07-22T14:38:51;96614.00;;;36.50
18704;BMP180;9481;48.796;9.210;2022-07-22T14:41:19;96614.00;;;36.40
18704;BMP180;9481;48.796;9.210;2022-07-22T14:43:45;96622.00;;;36.40
18704;BMP180;9481;48.796;9.210;2022-07-22T14:46:11;96614.00;;;36.40
18704;BMP180;9481;48.796;9.210;2022-07-22T14:48:39;96615.00;;;36.30
18704;BMP180;9481;48.796;9.210;2022-07-22T14:51:05;96617.00;;;36.30
18704;BMP180;9481;48.796;9.210;2022-07-22T14:53:31;96617.00;;;36.20
18704;BMP180;9481;48.796;9.210;2022-07-22T14:55:57;96606.00;;;36.10
18704;BMP180;9481;48.796;9.210;2022-07-22T14:58:22;96607.00;;;36.10
18704;BMP180;9481;48.796;9.210;2022-07-22T15:00:48;96597.00;;;36.00
18704;BMP180;9481;48.796;9.210;2022-07-22T15:03:14;96599.00;;;36.00